sensor_id;sensor_type;location;lat;lon;timestamp;temperature;humidity
26821;DHT22;37186;51.394;5.454;2023-03-03T00:01:05;6.10;68.00
26821;DHT22;37186;51.394;5.454;2023-03-03T00:04:06;6.10;68.30
26821;DHT22;37186;51.394;5.454;2023-03-03T00:07:06;6.10;68.00
26821;DHT22;37186;51.394;5.454;2023-03-03T00:10:07;6.00;68.90
26821;DHT22;37186;51.394;5.454;2023-03-03T00:13:22;6.00;68.00
26821;DHT22;37186;51.394;5.454;2023-03-03T00:19:28;5.90;67.90
26821;DHT22;37186;51.394;5.454;2023-03-03T00:22:36;5.90;68.20
26821;DHT22;37186;51.394;5.454;2023-03-03T00:25:37;5.90;68.20
26821;DHT22;37186;51.394;5.454;2023-03-03T00:28:44;5.90;68.40
26821;DHT22;37186;51.394;5.454;2023-03-03T00:31:45;5.80;68.10
26821;DHT22;37186;51.394;5.454;2023-03-03T00:34:46;5.80;68.30
26821;DHT22;37186;51.394;5.454;2023-03-03T00:37:47;5.90;68.30
26821;DHT22;37186;51.394;5.454;2023-03-03T00:40:48;5.80;68.30
26821;DHT22;37186;51.394;5.454;2023-03-03T00:43:50;5.80;68.30
26821;DHT22;37186;51.394;5.454;2023-03-03T00:46:50;5.70;68.20
26821;DHT22;37186;51.394;5.454;2023-03-03T00:53:15;5.70;68.30
26821;DHT22;37186;51.394;5.454;2023-03-03T00:56:19;5.60;68.40
26821;DHT22;37186;51.394;5.454;2023-03-03T00:59:20;5.60;68.60
26821;DHT22;37186;51.394;5.454;2023-03-03T01:02:20;5.60;68.20
26821;DHT22;37186;51.394;5.454;2023-03-03T01:05:21;5.60;68.30
26821;DHT22;37186;51.394;5.454;2023-03-03T01:08:22;5.50;68.70
26821;DHT22;37186;51.394;5.454;2023-03-03T01:11:25;5.50;68.90
26821;DHT22;37186;51.394;5.454;2023-03-03T01:14:27;5.50;68.90
26821;DHT22;37186;51.394;5.454;2023-03-03T01:17:28;5.50;68.70
26821;DHT22;37186;51.394;5.454;2023-03-03T01:20:28;5.50;68.60
26821;DHT22;37186;51.394;5.454;2023-03-03T01:23:29;5.50;68.60
26821;DHT22;37186;51.394;5.454;2023-03-03T01:26:30;5.40;68.40
26821;DHT22;37186;51.394;5.454;2023-03-03T01:29:30;5.40;68.80
26821;DHT22;37186;51.394;5.454;2023-03-03T01:32:31;5.40;68.50
26821;DHT22;37186;51.394;5.454;2023-03-03T01:35:31;5.40;68.40
26821;DHT22;37186;51.394;5.454;2023-03-03T01:38:35;5.40;68.70
26821;DHT22;37186;51.394;5.454;2023-03-03T01:41:35;5.50;69.20
26821;DHT22;37186;51.394;5.454;2023-03-03T01:44:36;5.40;68.70
26821;DHT22;37186;51.394;5.454;2023-03-03T01:47:37;5.40;68.90
26821;DHT22;37186;51.394;5.454;2023-03-03T01:50:44;5.40;69.00
26821;DHT22;37186;51.394;5.454;2023-03-03T01:53:52;5.50;68.80
26821;DHT22;37186;51.394;5.454;2023-03-03T01:56:56;5.40;68.80
26821;DHT22;37186;51.394;5.454;2023-03-03T01:59:59;5.40;68.80
26821;DHT22;37186;51.394;5.454;2023-03-03T02:03:01;5.40;69.40
26821;DHT22;37186;51.394;5.454;2023-03-03T02:06:07;5.40;69.30
26821;DHT22;37186;51.394;5.454;2023-03-03T02:12:43;5.40;69.10
26821;DHT22;37186;51.394;5.454;2023-03-03T02:15:45;5.40;69.10
26821;DHT22;37186;51.394;5.454;2023-03-03T02:18:45;5.40;69.20
26821;DHT22;37186;51.394;5.454;2023-03-03T02:21:46;5.40;69.20
26821;DHT22;37186;51.394;5.454;2023-03-03T02:24:57;5.40;69.20
26821;DHT22;37186;51.394;5.454;2023-03-03T02:27:59;5.40;69.10
26821;DHT22;37186;51.394;5.454;2023-03-03T02:31:01;5.40;69.20
26821;DHT22;37186;51.394;5.454;2023-03-03T02:34:02;5.40;68.90
26821;DHT22;37186;51.394;5.454;2023-03-03T02:37:03;5.30;69.40
26821;DHT22;37186;51.394;5.454;2023-03-03T02:40:05;5.30;69.30
26821;DHT22;37186;51.394;5.454;2023-03-03T02:43:07;5.30;68.90
26821;DHT22;37186;51.394;5.454;2023-03-03T02:46:08;5.30;69.20
26821;DHT22;37186;51.394;5.454;2023-03-03T02:49:12;5.30;69.30
26821;DHT22;37186;51.394;5.454;2023-03-03T02:52:13;5.30;68.80
26821;DHT22;37186;51.394;5.454;2023-03-03T02:55:14;5.30;69.20
26821;DHT22;37186;51.394;5.454;2023-03-03T02:58:14;5.30;69.10
26821;DHT22;37186;51.394;5.454;2023-03-03T03:01:15;5.30;69.40
26821;DHT22;37186;51.394;5.454;2023-03-03T03:04:21;5.30;69.40
26821;DHT22;37186;51.394;5.454;2023-03-03T03:07:22;5.30;69.60
26821;DHT22;37186;51.394;5.454;2023-03-03T03:10:22;5.30;69.20
26821;DHT22;37186;51.394;5.454;2023-03-03T03:13:24;5.30;69.00
26821;DHT22;37186;51.394;5.454;2023-03-03T03:16:24;5.20;69.30
26821;DHT22;37186;51.394;5.454;2023-03-03T03:19:25;5.20;69.10
26821;DHT22;37186;51.394;5.454;2023-03-03T03:22:25;5.20;69.30
26821;DHT22;37186;51.394;5.454;2023-03-03T03:25:26;5.20;69.10
26821;DHT22;37186;51.394;5.454;2023-03-03T03:28:26;5.20;69.40
26821;DHT22;37186;51.394;5.454;2023-03-03T03:31:27;5.20;69.20
26821;DHT22;37186;51.394;5.454;2023-03-03T03:34:28;5.20;69.30
26821;DHT22;37186;51.394;5.454;2023-03-03T03:37:28;5.20;69.70
26821;DHT22;37186;51.394;5.454;2023-03-03T03:40:29;5.20;69.20
26821;DHT22;37186;51.394;5.454;2023-03-03T03:43:29;5.10;69.30
26821;DHT22;37186;51.394;5.454;2023-03-03T03:46:30;5.10;69.20
26821;DHT22;37186;51.394;5.454;2023-03-03T03:49:30;5.10;69.00
26821;DHT22;37186;51.394;5.454;2023-03-03T03:52:31;5.10;69.60
26821;DHT22;37186;51.394;5.454;2023-03-03T03:55:32;5.10;69.10
26821;DHT22;37186;51.394;5.454;2023-03-03T03:58:32;5.10;69.30
26821;DHT22;37186;51.394;5.454;2023-03-03T04:01:33;5.10;69.20
26821;DHT22;37186;51.394;5.454;2023-03-03T04:04:33;5.10;69.20
26821;DHT22;37186;51.394;5.454;2023-03-03T04:07:34;5.10;69.30
26821;DHT22;37186;51.394;5.454;2023-03-03T04:10:35;5.10;69.70
26821;DHT22;37186;51.394;5.454;2023-03-03T04:13:35;5.10;69.40
26821;DHT22;37186;51.394;5.454;2023-03-03T04:16:36;5.10;69.50
26821;DHT22;37186;51.394;5.454;2023-03-03T04:19:36;5.10;69.40
26821;DHT22;37186;51.394;5.454;2023-03-03T04:22:37;5.10;69.70
26821;DHT22;37186;51.394;5.454;2023-03-03T04:25:37;5.10;69.80
26821;DHT22;37186;51.394;5.454;2023-03-03T04:28:38;5.00;69.40
26821;DHT22;37186;51.394;5.454;2023-03-03T04:31:38;5.00;69.30
26821;DHT22;37186;51.394;5.454;2023-03-03T04:34:39;5.10;69.30
26821;DHT22;37186;51.394;5.454;2023-03-03T04:37:40;5.00;69.50
26821;DHT22;37186;51.394;5.454;2023-03-03T04:40:40;5.00;69.60
26821;DHT22;37186;51.394;5.454;2023-03-03T04:43:41;5.00;69.40
26821;DHT22;37186;51.394;5.454;2023-03-03T04:46:41;5.00;69.70
26821;DHT22;37186;51.394;5.454;2023-03-03T04:49:42;5.00;69.50
26821;DHT22;37186;51.394;5.454;2023-03-03T04:52:42;5.00;69.40
26821;DHT22;37186;51.394;5.454;2023-03-03T04:55:43;5.00;69.90
26821;DHT22;37186;51.394;5.454;2023-03-03T04:58:43;5.00;69.60
26821;DHT22;37186;51.394;5.454;2023-03-03T05:01:44;5.00;69.40
26821;DHT22;37186;51.394;5.454;2023-03-03T05:04:45;5.00;69.40
26821;DHT22;37186;51.394;5.454;2023-03-03T05:07:46;5.00;69.50
26821;DHT22;37186;51.394;5.454;2023-03-03T05:10:51;5.00;69.50
26821;DHT22;37186;51.394;5.454;2023-03-03T05:13:51;5.00;69.40
26821;DHT22;37186;51.394;5.454;2023-03-03T05:16:52;5.00;69.60
26821;DHT22;37186;51.394;5.454;2023-03-03T05:19:53;5.00;69.90
26821;DHT22;37186;51.394;5.454;2023-03-03T05:22:54;5.00;69.60
26821;DHT22;37186;51.394;5.454;2023-03-03T05:25:56;5.00;69.50
26821;DHT22;37186;51.394;5.454;2023-03-03T05:28:57;5.00;69.80
26821;DHT22;37186;51.394;5.454;2023-03-03T05:31:57;4.90;69.60
26821;DHT22;37186;51.394;5.454;2023-03-03T05:34:58;4.90;69.50
26821;DHT22;37186;51.394;5.454;2023-03-03T05:37:59;4.90;69.80
26821;DHT22;37186;51.394;5.454;2023-03-03T05:41:00;4.90;69.60
26821;DHT22;37186;51.394;5.454;2023-03-03T05:44:01;4.90;69.90
26821;DHT22;37186;51.394;5.454;2023-03-03T05:47:01;4.90;69.70
26821;DHT22;37186;51.394;5.454;2023-03-03T05:50:02;4.90;69.50
26821;DHT22;37186;51.394;5.454;2023-03-03T05:53:04;4.90;69.60
26821;DHT22;37186;51.394;5.454;2023-03-03T05:56:04;4.90;69.50
26821;DHT22;37186;51.394;5.454;2023-03-03T05:59:05;4.90;69.60
26821;DHT22;37186;51.394;5.454;2023-03-03T06:02:06;4.90;69.50
26821;DHT22;37186;51.394;5.454;2023-03-03T06:05:07;4.90;70.20
26821;DHT22;37186;51.394;5.454;2023-03-03T06:08:08;4.90;69.90
26821;DHT22;37186;51.394;5.454;2023-03-03T06:11:08;4.90;69.60
26821;DHT22;37186;51.394;5.454;2023-03-03T06:14:09;4.90;69.60
26821;DHT22;37186;51.394;5.454;2023-03-03T06:17:09;4.90;69.80
26821;DHT22;37186;51.394;5.454;2023-03-03T06:20:10;4.90;70.30
26821;DHT22;37186;51.394;5.454;2023-03-03T06:23:11;4.90;70.00
26821;DHT22;37186;51.394;5.454;2023-03-03T06:26:11;4.90;70.10
26821;DHT22;37186;51.394;5.454;2023-03-03T06:29:12;4.90;69.80
26821;DHT22;37186;51.394;5.454;2023-03-03T06:32:13;4.90;69.60
26821;DHT22;37186;51.394;5.454;2023-03-03T06:35:14;4.90;69.60
26821;DHT22;37186;51.394;5.454;2023-03-03T06:38:15;4.90;69.80
26821;DHT22;37186;51.394;5.454;2023-03-03T06:41:15;4.90;69.80
26821;DHT22;37186;51.394;5.454;2023-03-03T06:44:16;4.80;69.90
26821;DHT22;37186;51.394;5.454;2023-03-03T06:47:16;4.90;69.90
26821;DHT22;37186;51.394;5.454;2023-03-03T06:50:19;4.90;69.70
26821;DHT22;37186;51.394;5.454;2023-03-03T06:53:20;4.90;69.60
26821;DHT22;37186;51.394;5.454;2023-03-03T06:56:22;4.90;70.00
26821;DHT22;37186;51.394;5.454;2023-03-03T06:59:25;4.90;70.00
26821;DHT22;37186;51.394;5.454;2023-03-03T07:02:25;5.00;69.90
26821;DHT22;37186;51.394;5.454;2023-03-03T07:05:27;5.00;69.80
26821;DHT22;37186;51.394;5.454;2023-03-03T07:08:30;5.00;69.70
26821;DHT22;37186;51.394;5.454;2023-03-03T07:11:32;5.00;69.70
26821;DHT22;37186;51.394;5.454;2023-03-03T07:14:34;5.00;69.80
26821;DHT22;37186;51.394;5.454;2023-03-03T07:17:44;5.00;69.90
26821;DHT22;37186;51.394;5.454;2023-03-03T07:20:45;5.00;69.80
26821;DHT22;37186;51.394;5.454;2023-03-03T07:23:48;5.00;69.90
26821;DHT22;37186;51.394;5.454;2023-03-03T07:26:48;5.00;69.90
26821;DHT22;37186;51.394;5.454;2023-03-03T07:29:51;5.00;69.80
26821;DHT22;37186;51.394;5.454;2023-03-03T07:32:57;5.10;69.90
26821;DHT22;37186;51.394;5.454;2023-03-03T07:35:58;5.10;69.90
26821;DHT22;37186;51.394;5.454;2023-03-03T07:39:20;5.10;69.90
26821;DHT22;37186;51.394;5.454;2023-03-03T07:42:35;5.10;70.20
26821;DHT22;37186;51.394;5.454;2023-03-03T07:45:38;5.10;70.10
26821;DHT22;37186;51.394;5.454;2023-03-03T07:48:40;5.10;69.90
26821;DHT22;37186;51.394;5.454;2023-03-03T07:51:41;5.10;70.10
26821;DHT22;37186;51.394;5.454;2023-03-03T07:54:43;5.10;70.10
26821;DHT22;37186;51.394;5.454;2023-03-03T07:57:45;5.10;70.00
26821;DHT22;37186;51.394;5.454;2023-03-03T08:07:24;5.20;70.20
26821;DHT22;37186;51.394;5.454;2023-03-03T08:10:39;5.20;70.20
26821;DHT22;37186;51.394;5.454;2023-03-03T08:13:42;5.20;70.50
26821;DHT22;37186;51.394;5.454;2023-03-03T08:16:44;5.20;70.30
26821;DHT22;37186;51.394;5.454;2023-03-03T08:19:45;5.20;70.30
26821;DHT22;37186;51.394;5.454;2023-03-03T08:22:45;5.20;70.40
26821;DHT22;37186;51.394;5.454;2023-03-03T08:25:48;5.30;70.20
26821;DHT22;37186;51.394;5.454;2023-03-03T08:28:49;5.30;71.50
26821;DHT22;37186;51.394;5.454;2023-03-03T08:31:50;5.30;70.30
26821;DHT22;37186;51.394;5.454;2023-03-03T08:34:51;5.30;70.30
26821;DHT22;37186;51.394;5.454;2023-03-03T08:37:51;5.30;70.30
26821;DHT22;37186;51.394;5.454;2023-03-03T08:40:52;5.30;70.50
26821;DHT22;37186;51.394;5.454;2023-03-03T08:43:53;5.30;70.30
26821;DHT22;37186;51.394;5.454;2023-03-03T08:46:53;5.40;70.40
26821;DHT22;37186;51.394;5.454;2023-03-03T08:49:54;5.40;70.50
26821;DHT22;37186;51.394;5.454;2023-03-03T08:52:55;5.40;70.60
26821;DHT22;37186;51.394;5.454;2023-03-03T08:55:56;5.40;70.50
26821;DHT22;37186;51.394;5.454;2023-03-03T08:58:56;5.40;70.30
26821;DHT22;37186;51.394;5.454;2023-03-03T09:01:57;5.40;70.40
26821;DHT22;37186;51.394;5.454;2023-03-03T09:04:57;5.50;70.60
26821;DHT22;37186;51.394;5.454;2023-03-03T09:07:58;5.50;70.80
26821;DHT22;37186;51.394;5.454;2023-03-03T09:10:59;5.50;70.60
26821;DHT22;37186;51.394;5.454;2023-03-03T09:14:10;5.50;70.70
26821;DHT22;37186;51.394;5.454;2023-03-03T09:20:30;5.50;70.50
26821;DHT22;37186;51.394;5.454;2023-03-03T09:26:45;5.60;71.00
26821;DHT22;37186;51.394;5.454;2023-03-03T09:29:46;5.70;70.80
26821;DHT22;37186;51.394;5.454;2023-03-03T09:32:47;5.70;70.50
26821;DHT22;37186;51.394;5.454;2023-03-03T09:35:51;5.70;70.60
26821;DHT22;37186;51.394;5.454;2023-03-03T09:38:53;5.70;70.60
26821;DHT22;37186;51.394;5.454;2023-03-03T09:42:06;5.70;70.70
26821;DHT22;37186;51.394;5.454;2023-03-03T09:48:30;5.80;70.70
26821;DHT22;37186;51.394;5.454;2023-03-03T09:55:11;5.90;70.80
26821;DHT22;37186;51.394;5.454;2023-03-03T10:01:34;5.90;70.90
26821;DHT22;37186;51.394;5.454;2023-03-03T10:04:41;6.00;71.30
26821;DHT22;37186;51.394;5.454;2023-03-03T10:11:29;6.00;70.90
26821;DHT22;37186;51.394;5.454;2023-03-03T10:14:37;6.10;71.50
26821;DHT22;37186;51.394;5.454;2023-03-03T10:17:47;6.10;71.00
26821;DHT22;37186;51.394;5.454;2023-03-03T10:21:01;6.10;71.10
26821;DHT22;37186;51.394;5.454;2023-03-03T10:24:22;6.20;71.00
26821;DHT22;37186;51.394;5.454;2023-03-03T10:41:23;6.30;71.10
26821;DHT22;37186;51.394;5.454;2023-03-03T11:01:29;6.60;71.30
26821;DHT22;37186;51.394;5.454;2023-03-03T11:08:02;6.70;71.20
26821;DHT22;37186;51.394;5.454;2023-03-03T11:11:40;6.70;71.20
26821;DHT22;37186;51.394;5.454;2023-03-03T11:15:08;6.80;71.20
26821;DHT22;37186;51.394;5.454;2023-03-03T11:21:50;6.80;72.00
26821;DHT22;37186;51.394;5.454;2023-03-03T11:33:00;7.00;71.30
26821;DHT22;37186;51.394;5.454;2023-03-03T11:35:54;7.00;71.30
26821;DHT22;37186;51.394;5.454;2023-03-03T11:39:08;7.00;71.30
26821;DHT22;37186;51.394;5.454;2023-03-03T11:45:47;7.10;71.20
26821;DHT22;37186;51.394;5.454;2023-03-03T11:48:52;7.10;71.30
26821;DHT22;37186;51.394;5.454;2023-03-03T11:52:18;7.10;71.30
26821;DHT22;37186;51.394;5.454;2023-03-03T11:55:32;7.20;71.50
26821;DHT22;37186;51.394;5.454;2023-03-03T11:58:46;7.30;71.80
26821;DHT22;37186;51.394;5.454;2023-03-03T12:01:55;7.30;71.90
26821;DHT22;37186;51.394;5.454;2023-03-03T12:05:26;7.40;72.00
26821;DHT22;37186;51.394;5.454;2023-03-03T12:09:07;7.50;72.10
26821;DHT22;37186;51.394;5.454;2023-03-03T12:12:24;7.70;72.40
26821;DHT22;37186;51.394;5.454;2023-03-03T12:15:47;7.80;72.40
26821;DHT22;37186;51.394;5.454;2023-03-03T12:19:01;7.90;72.60
26821;DHT22;37186;51.394;5.454;2023-03-03T12:25:41;8.20;72.00
26821;DHT22;37186;51.394;5.454;2023-03-03T12:29:04;8.20;71.80
26821;DHT22;37186;51.394;5.454;2023-03-03T12:32:32;8.30;71.80
26821;DHT22;37186;51.394;5.454;2023-03-03T12:35:55;8.40;71.70
26821;DHT22;37186;51.394;5.454;2023-03-03T12:39:01;8.50;71.90
26821;DHT22;37186;51.394;5.454;2023-03-03T12:42:07;8.60;71.90
26821;DHT22;37186;51.394;5.454;2023-03-03T12:48:31;8.70;71.60
26821;DHT22;37186;51.394;5.454;2023-03-03T12:52:19;8.80;71.40
26821;DHT22;37186;51.394;5.454;2023-03-03T12:55:32;8.90;71.40
26821;DHT22;37186;51.394;5.454;2023-03-03T12:58:39;8.90;71.50
26821;DHT22;37186;51.394;5.454;2023-03-03T13:05:46;9.00;71.30
26821;DHT22;37186;51.394;5.454;2023-03-03T13:12:38;9.10;71.40
26821;DHT22;37186;51.394;5.454;2023-03-03T13:15:52;9.20;71.40
26821;DHT22;37186;51.394;5.454;2023-03-03T13:19:15;9.30;71.30
26821;DHT22;37186;51.394;5.454;2023-03-03T13:32:27;9.50;71.20
26821;DHT22;37186;51.394;5.454;2023-03-03T13:35:35;9.60;71.10
26821;DHT22;37186;51.394;5.454;2023-03-03T13:38:45;9.60;71.20
26821;DHT22;37186;51.394;5.454;2023-03-03T13:42:00;9.70;71.20
26821;DHT22;37186;51.394;5.454;2023-03-03T13:45:05;9.80;71.30
26821;DHT22;37186;51.394;5.454;2023-03-03T13:48:31;9.80;71.10
26821;DHT22;37186;51.394;5.454;2023-03-03T14:01:47;10.10;71.10
26821;DHT22;37186;51.394;5.454;2023-03-03T14:05:03;10.20;71.10
26821;DHT22;37186;51.394;5.454;2023-03-03T14:18:29;10.60;71.60
26821;DHT22;37186;51.394;5.454;2023-03-03T14:25:07;10.90;71.30
26821;DHT22;37186;51.394;5.454;2023-03-03T14:28:11;11.00;70.70
26821;DHT22;37186;51.394;5.454;2023-03-03T14:31:20;11.10;71.30
26821;DHT22;37186;51.394;5.454;2023-03-03T14:38:00;11.20;71.00
26821;DHT22;37186;51.394;5.454;2023-03-03T14:41:16;11.20;71.00
26821;DHT22;37186;51.394;5.454;2023-03-03T14:44:49;11.30;70.60
26821;DHT22;37186;51.394;5.454;2023-03-03T14:47:52;11.30;70.70
26821;DHT22;37186;51.394;5.454;2023-03-03T14:54:27;11.40;70.70
26821;DHT22;37186;51.394;5.454;2023-03-03T15:00:48;11.50;70.80
26821;DHT22;37186;51.394;5.454;2023-03-03T15:04:03;11.50;70.20
26821;DHT22;37186;51.394;5.454;2023-03-03T15:10:41;11.50;70.40
26821;DHT22;37186;51.394;5.454;2023-03-03T15:13:42;11.50;70.20
26821;DHT22;37186;51.394;5.454;2023-03-03T15:16:43;11.60;70.40
26821;DHT22;37186;51.394;5.454;2023-03-03T15:26:10;11.60;70.40
26821;DHT22;37186;51.394;5.454;2023-03-03T15:29:23;11.50;70.30
26821;DHT22;37186;51.394;5.454;2023-03-03T15:32:31;11.60;70.10
26821;DHT22;37186;51.394;5.454;2023-03-03T15:35:49;11.50;70.00
26821;DHT22;37186;51.394;5.454;2023-03-03T15:45:24;11.50;69.50
26821;DHT22;37186;51.394;5.454;2023-03-03T15:51:52;11.40;69.60
26821;DHT22;37186;51.394;5.454;2023-03-03T16:02:21;11.20;69.80
26821;DHT22;37186;51.394;5.454;2023-03-03T16:05:29;11.20;69.60
26821;DHT22;37186;51.394;5.454;2023-03-03T16:11:49;11.20;69.60
26821;DHT22;37186;51.394;5.454;2023-03-03T16:15:25;11.10;69.40
26821;DHT22;37186;51.394;5.454;2023-03-03T16:22:05;11.10;69.60
26821;DHT22;37186;51.394;5.454;2023-03-03T16:28:53;11.00;69.60
26821;DHT22;37186;51.394;5.454;2023-03-03T16:32:16;11.00;69.70
26821;DHT22;37186;51.394;5.454;2023-03-03T16:35:30;11.00;69.60
26821;DHT22;37186;51.394;5.454;2023-03-03T16:38:41;10.90;69.60
26821;DHT22;37186;51.394;5.454;2023-03-03T16:41:54;10.90;69.60
26821;DHT22;37186;51.394;5.454;2023-03-03T16:48:24;10.90;69.70
26821;DHT22;37186;51.394;5.454;2023-03-03T16:51:34;10.90;69.50
26821;DHT22;37186;51.394;5.454;2023-03-03T16:58:27;10.80;69.30
26821;DHT22;37186;51.394;5.454;2023-03-03T17:01:49;10.70;69.40
26821;DHT22;37186;51.394;5.454;2023-03-03T17:05:04;10.70;69.60
26821;DHT22;37186;51.394;5.454;2023-03-03T17:08:43;10.70;69.60
26821;DHT22;37186;51.394;5.454;2023-03-03T17:21:23;10.60;69.70
26821;DHT22;37186;51.394;5.454;2023-03-03T17:34:34;10.40;69.40
26821;DHT22;37186;51.394;5.454;2023-03-03T17:41:31;10.40;69.60
26821;DHT22;37186;51.394;5.454;2023-03-03T17:44:40;10.40;69.50
26821;DHT22;37186;51.394;5.454;2023-03-03T18:00:46;10.20;69.50
26821;DHT22;37186;51.394;5.454;2023-03-03T18:07:39;10.20;69.50
26821;DHT22;37186;51.394;5.454;2023-03-03T18:17:30;10.10;69.50
26821;DHT22;37186;51.394;5.454;2023-03-03T18:20:53;10.00;69.40
26821;DHT22;37186;51.394;5.454;2023-03-03T18:24:25;10.00;69.40
26821;DHT22;37186;51.394;5.454;2023-03-03T18:27:30;10.00;69.40
26821;DHT22;37186;51.394;5.454;2023-03-03T18:30:52;10.00;69.60
26821;DHT22;37186;51.394;5.454;2023-03-03T18:40:33;9.90;69.60
26821;DHT22;37186;51.394;5.454;2023-03-03T18:44:00;9.90;69.50
26821;DHT22;37186;51.394;5.454;2023-03-03T18:47:03;9.90;69.40
26821;DHT22;37186;51.394;5.454;2023-03-03T18:50:14;9.90;69.50
26821;DHT22;37186;51.394;5.454;2023-03-03T18:53:21;9.80;69.50
26821;DHT22;37186;51.394;5.454;2023-03-03T18:56:43;9.80;69.40
26821;DHT22;37186;51.394;5.454;2023-03-03T18:59:53;9.80;69.30
26821;DHT22;37186;51.394;5.454;2023-03-03T19:02:57;9.80;69.30
26821;DHT22;37186;51.394;5.454;2023-03-03T19:05:59;9.80;69.30
26821;DHT22;37186;51.394;5.454;2023-03-03T19:09:01;9.70;69.10
26821;DHT22;37186;51.394;5.454;2023-03-03T19:12:06;9.70;68.80
26821;DHT22;37186;51.394;5.454;2023-03-03T19:21:50;9.60;69.10
26821;DHT22;37186;51.394;5.454;2023-03-03T19:25:22;9.60;69.10
26821;DHT22;37186;51.394;5.454;2023-03-03T19:35:51;9.50;69.20
26821;DHT22;37186;51.394;5.454;2023-03-03T19:42:32;9.40;69.00
26821;DHT22;37186;51.394;5.454;2023-03-03T19:45:56;9.40;69.10
26821;DHT22;37186;51.394;5.454;2023-03-03T19:52:36;9.40;69.10
26821;DHT22;37186;51.394;5.454;2023-03-03T20:05:46;9.30;69.00
26821;DHT22;37186;51.394;5.454;2023-03-03T20:15:28;9.20;69.10
26821;DHT22;37186;51.394;5.454;2023-03-03T20:18:57;9.20;69.10
26821;DHT22;37186;51.394;5.454;2023-03-03T20:22:27;9.20;69.20
26821;DHT22;37186;51.394;5.454;2023-03-03T20:25:42;9.20;69.20
26821;DHT22;37186;51.394;5.454;2023-03-03T20:41:49;9.20;69.20
26821;DHT22;37186;51.394;5.454;2023-03-03T20:48:34;9.20;69.10
26821;DHT22;37186;51.394;5.454;2023-03-03T20:51:59;9.20;69.20
26821;DHT22;37186;51.394;5.454;2023-03-03T21:01:57;9.10;69.10
26821;DHT22;37186;51.394;5.454;2023-03-03T21:05:19;9.10;69.20
26821;DHT22;37186;51.394;5.454;2023-03-03T21:11:45;9.10;69.20
26821;DHT22;37186;51.394;5.454;2023-03-03T21:14:58;9.00;69.20
26821;DHT22;37186;51.394;5.454;2023-03-03T21:17:59;9.10;69.30
26821;DHT22;37186;51.394;5.454;2023-03-03T21:21:18;9.00;69.20
26821;DHT22;37186;51.394;5.454;2023-03-03T21:24:18;9.10;69.30
26821;DHT22;37186;51.394;5.454;2023-03-03T21:27:29;9.10;69.30
26821;DHT22;37186;51.394;5.454;2023-03-03T21:30:30;9.10;69.30
26821;DHT22;37186;51.394;5.454;2023-03-03T21:33:40;9.00;69.20
26821;DHT22;37186;51.394;5.454;2023-03-03T21:39:43;9.00;69.30
26821;DHT22;37186;51.394;5.454;2023-03-03T21:42:43;9.00;69.10
26821;DHT22;37186;51.394;5.454;2023-03-03T21:45:44;9.00;69.00
26821;DHT22;37186;51.394;5.454;2023-03-03T21:48:45;9.00;69.10
26821;DHT22;37186;51.394;5.454;2023-03-03T21:51:46;9.00;68.90
26821;DHT22;37186;51.394;5.454;2023-03-03T21:54:49;9.00;68.90
26821;DHT22;37186;51.394;5.454;2023-03-03T21:57:49;9.00;69.00
26821;DHT22;37186;51.394;5.454;2023-03-03T22:00:50;9.00;69.10
26821;DHT22;37186;51.394;5.454;2023-03-03T22:03:50;8.90;69.00
26821;DHT22;37186;51.394;5.454;2023-03-03T22:06:51;8.90;69.10
26821;DHT22;37186;51.394;5.454;2023-03-03T22:09:52;8.90;69.00
26821;DHT22;37186;51.394;5.454;2023-03-03T22:12:52;8.90;69.10
26821;DHT22;37186;51.394;5.454;2023-03-03T22:15:53;8.90;69.20
26821;DHT22;37186;51.394;5.454;2023-03-03T22:18:54;8.90;69.10
26821;DHT22;37186;51.394;5.454;2023-03-03T22:21:54;8.90;69.10
26821;DHT22;37186;51.394;5.454;2023-03-03T22:24:55;8.90;69.10
26821;DHT22;37186;51.394;5.454;2023-03-03T22:27:56;8.90;68.90
26821;DHT22;37186;51.394;5.454;2023-03-03T22:30:56;8.90;69.10
26821;DHT22;37186;51.394;5.454;2023-03-03T22:33:57;8.90;69.10
26821;DHT22;37186;51.394;5.454;2023-03-03T22:36:57;8.90;69.10
26821;DHT22;37186;51.394;5.454;2023-03-03T22:39:58;8.80;69.10
26821;DHT22;37186;51.394;5.454;2023-03-03T22:42:59;8.80;69.10
26821;DHT22;37186;51.394;5.454;2023-03-03T22:45:59;8.80;69.00
26821;DHT22;37186;51.394;5.454;2023-03-03T22:49:00;8.80;69.00
26821;DHT22;37186;51.394;5.454;2023-03-03T22:52:01;8.80;69.10
26821;DHT22;37186;51.394;5.454;2023-03-03T22:55:01;8.80;69.10
26821;DHT22;37186;51.394;5.454;2023-03-03T22:58:04;8.80;69.10
26821;DHT22;37186;51.394;5.454;2023-03-03T23:01:04;8.80;69.10
26821;DHT22;37186;51.394;5.454;2023-03-03T23:04:05;8.80;69.10
26821;DHT22;37186;51.394;5.454;2023-03-03T23:07:06;8.80;69.10
26821;DHT22;37186;51.394;5.454;2023-03-03T23:10:07;8.80;69.10
26821;DHT22;37186;51.394;5.454;2023-03-03T23:13:08;8.80;69.10
26821;DHT22;37186;51.394;5.454;2023-03-03T23:16:09;8.80;69.20
26821;DHT22;37186;51.394;5.454;2023-03-03T23:19:09;8.80;69.20
26821;DHT22;37186;51.394;5.454;2023-03-03T23:22:13;8.80;69.20
26821;DHT22;37186;51.394;5.454;2023-03-03T23:25:14;8.80;69.30
26821;DHT22;37186;51.394;5.454;2023-03-03T23:28:15;8.80;69.30
26821;DHT22;37186;51.394;5.454;2023-03-03T23:31:16;8.70;69.20
26821;DHT22;37186;51.394;5.454;2023-03-03T23:34:16;8.80;69.30
26821;DHT22;37186;51.394;5.454;2023-03-03T23:37:17;8.80;69.30
26821;DHT22;37186;51.394;5.454;2023-03-03T23:40:18;8.80;69.30
26821;DHT22;37186;51.394;5.454;2023-03-03T23:43:18;8.80;69.30
26821;DHT22;37186;51.394;5.454;2023-03-03T23:46:19;8.80;69.30
26821;DHT22;37186;51.394;5.454;2023-03-03T23:49:19;8.80;69.20
26821;DHT22;37186;51.394;5.454;2023-03-03T23:52:20;8.80;69.20
26821;DHT22;37186;51.394;5.454;2023-03-03T23:55:20;8.80;69.30
26821;DHT22;37186;51.394;5.454;2023-03-03T23:58:21;8.80;69.30
